sensor_id;sensor_type;location;lat;lon;timestamp;P1;durP1;ratioP1;P2;durP2;ratioP2
40254;SDS011;25973;52.368;4.940;2023-02-12T00:01:23;14.27;;;5.30;;
40254;SDS011;25973;52.368;4.940;2023-02-12T00:03:49;13.30;;;6.28;;
40254;SDS011;25973;52.368;4.940;2023-02-12T00:06:15;18.42;;;6.80;;
40254;SDS011;25973;52.368;4.940;2023-02-12T00:08:41;15.80;;;6.05;;
40254;SDS011;25973;52.368;4.940;2023-02-12T00:11:08;15.77;;;6.35;;
40254;SDS011;25973;52.368;4.940;2023-02-12T00:13:34;16.48;;;6.68;;
40254;SDS011;25973;52.368;4.940;2023-02-12T00:16:03;16.35;;;7.07;;
40254;SDS011;25973;52.368;4.940;2023-02-12T00:18:32;17.73;;;7.07;;
40254;SDS011;25973;52.368;4.940;2023-02-12T00:20:59;17.38;;;6.43;;
40254;SDS011;25973;52.368;4.940;2023-02-12T00:23:25;21.88;;;7.05;;
40254;SDS011;25973;52.368;4.940;2023-02-12T00:25:51;16.55;;;6.47;;
40254;SDS011;25973;52.368;4.940;2023-02-12T00:28:16;21.95;;;6.82;;
40254;SDS011;25973;52.368;4.940;2023-02-12T00:30:42;17.58;;;6.22;;
40254;SDS011;25973;52.368;4.940;2023-02-12T00:33:07;14.32;;;6.68;;
40254;SDS011;25973;52.368;4.940;2023-02-12T00:35:33;17.38;;;6.68;;
40254;SDS011;25973;52.368;4.940;2023-02-12T00:37:58;16.38;;;6.95;;
40254;SDS011;25973;52.368;4.940;2023-02-12T00:40:24;22.38;;;7.53;;
40254;SDS011;25973;52.368;4.940;2023-02-12T00:42:50;20.88;;;6.80;;
40254;SDS011;25973;52.368;4.940;2023-02-12T00:45:16;17.92;;;6.90;;
40254;SDS011;25973;52.368;4.940;2023-02-12T00:47:41;18.70;;;7.35;;
40254;SDS011;25973;52.368;4.940;2023-02-12T00:50:07;13.75;;;6.45;;
40254;SDS011;25973;52.368;4.940;2023-02-12T00:52:32;18.83;;;7.20;;
40254;SDS011;25973;52.368;4.940;2023-02-12T00:54:58;21.73;;;7.18;;
40254;SDS011;25973;52.368;4.940;2023-02-12T00:57:24;19.92;;;7.05;;
40254;SDS011;25973;52.368;4.940;2023-02-12T00:59:49;18.13;;;6.60;;
40254;SDS011;25973;52.368;4.940;2023-02-12T01:02:15;17.95;;;6.55;;
40254;SDS011;25973;52.368;4.940;2023-02-12T01:04:42;19.90;;;7.70;;
40254;SDS011;25973;52.368;4.940;2023-02-12T01:07:09;25.95;;;7.60;;
40254;SDS011;25973;52.368;4.940;2023-02-12T01:09:34;16.77;;;7.03;;
40254;SDS011;25973;52.368;4.940;2023-02-12T01:12:00;18.77;;;8.15;;
40254;SDS011;25973;52.368;4.940;2023-02-12T01:14:26;22.30;;;7.40;;
40254;SDS011;25973;52.368;4.940;2023-02-12T01:16:51;37.22;;;12.55;;
40254;SDS011;25973;52.368;4.940;2023-02-12T01:19:17;52.50;;;17.00;;
40254;SDS011;25973;52.368;4.940;2023-02-12T01:21:42;23.02;;;10.00;;
40254;SDS011;25973;52.368;4.940;2023-02-12T01:24:08;25.58;;;9.55;;
40254;SDS011;25973;52.368;4.940;2023-02-12T01:26:34;18.58;;;7.13;;
40254;SDS011;25973;52.368;4.940;2023-02-12T01:29:00;20.33;;;7.53;;
40254;SDS011;25973;52.368;4.940;2023-02-12T01:31:29;13.75;;;7.38;;
40254;SDS011;25973;52.368;4.940;2023-02-12T01:33:58;14.93;;;6.97;;
40254;SDS011;25973;52.368;4.940;2023-02-12T01:36:25;15.43;;;6.68;;
40254;SDS011;25973;52.368;4.940;2023-02-12T01:38:52;19.83;;;7.60;;
40254;SDS011;25973;52.368;4.940;2023-02-12T01:41:20;19.17;;;8.10;;
40254;SDS011;25973;52.368;4.940;2023-02-12T01:44:06;21.25;;;7.65;;
40254;SDS011;25973;52.368;4.940;2023-02-12T01:46:33;22.42;;;7.22;;
40254;SDS011;25973;52.368;4.940;2023-02-12T01:48:59;15.43;;;6.63;;
40254;SDS011;25973;52.368;4.940;2023-02-12T01:51:26;13.38;;;6.90;;
40254;SDS011;25973;52.368;4.940;2023-02-12T01:53:53;17.42;;;7.07;;
40254;SDS011;25973;52.368;4.940;2023-02-12T01:56:20;23.30;;;7.68;;
40254;SDS011;25973;52.368;4.940;2023-02-12T01:58:47;21.00;;;7.75;;
40254;SDS011;25973;52.368;4.940;2023-02-12T02:01:20;17.73;;;6.13;;
40254;SDS011;25973;52.368;4.940;2023-02-12T02:03:49;23.20;;;7.63;;
40254;SDS011;25973;52.368;4.940;2023-02-12T02:06:19;19.23;;;7.15;;
40254;SDS011;25973;52.368;4.940;2023-02-12T02:08:51;19.00;;;6.95;;
40254;SDS011;25973;52.368;4.940;2023-02-12T02:11:17;19.65;;;7.13;;
40254;SDS011;25973;52.368;4.940;2023-02-12T02:14:01;18.63;;;6.78;;
40254;SDS011;25973;52.368;4.940;2023-02-12T02:17:34;22.02;;;7.65;;
40254;SDS011;25973;52.368;4.940;2023-02-12T02:19:49;20.88;;;7.10;;
40254;SDS011;25973;52.368;4.940;2023-02-12T02:22:49;16.98;;;6.63;;
40254;SDS011;25973;52.368;4.940;2023-02-12T02:25:48;15.30;;;6.85;;
40254;SDS011;25973;52.368;4.940;2023-02-12T02:31:03;24.55;;;6.63;;
40254;SDS011;25973;52.368;4.940;2023-02-12T02:38:44;18.08;;;7.63;;
40254;SDS011;25973;52.368;4.940;2023-02-12T02:41:43;17.55;;;7.55;;
40254;SDS011;25973;52.368;4.940;2023-02-12T02:44:15;16.75;;;6.82;;
40254;SDS011;25973;52.368;4.940;2023-02-12T02:46:45;14.63;;;7.05;;
40254;SDS011;25973;52.368;4.940;2023-02-12T02:49:18;14.13;;;6.95;;
40254;SDS011;25973;52.368;4.940;2023-02-12T02:52:02;20.52;;;7.25;;
40254;SDS011;25973;52.368;4.940;2023-02-12T02:54:36;22.45;;;7.72;;
40254;SDS011;25973;52.368;4.940;2023-02-12T02:57:07;17.50;;;8.10;;
40254;SDS011;25973;52.368;4.940;2023-02-12T02:59:39;17.75;;;8.23;;
40254;SDS011;25973;52.368;4.940;2023-02-12T03:02:11;16.13;;;7.35;;
40254;SDS011;25973;52.368;4.940;2023-02-12T03:04:43;21.58;;;7.93;;
40254;SDS011;25973;52.368;4.940;2023-02-12T03:07:13;16.92;;;7.03;;
40254;SDS011;25973;52.368;4.940;2023-02-12T03:09:46;19.75;;;7.80;;
40254;SDS011;25973;52.368;4.940;2023-02-12T03:12:18;17.58;;;7.70;;
40254;SDS011;25973;52.368;4.940;2023-02-12T03:14:53;17.17;;;7.65;;
40254;SDS011;25973;52.368;4.940;2023-02-12T03:17:30;18.30;;;7.07;;
40254;SDS011;25973;52.368;4.940;2023-02-12T03:20:11;13.88;;;6.68;;
40254;SDS011;25973;52.368;4.940;2023-02-12T03:22:54;20.10;;;7.10;;
40254;SDS011;25973;52.368;4.940;2023-02-12T03:25:34;20.65;;;6.63;;
40254;SDS011;25973;52.368;4.940;2023-02-12T03:28:09;17.73;;;7.10;;
40254;SDS011;25973;52.368;4.940;2023-02-12T03:30:58;20.80;;;7.97;;
40254;SDS011;25973;52.368;4.940;2023-02-12T03:36:57;24.88;;;7.35;;
40254;SDS011;25973;52.368;4.940;2023-02-12T03:39:31;19.10;;;6.40;;
40254;SDS011;25973;52.368;4.940;2023-02-12T03:50:25;15.48;;;6.88;;
40254;SDS011;25973;52.368;4.940;2023-02-12T03:52:58;16.60;;;7.03;;
40254;SDS011;25973;52.368;4.940;2023-02-12T03:55:24;21.77;;;8.40;;
40254;SDS011;25973;52.368;4.940;2023-02-12T03:57:51;21.35;;;8.45;;
40254;SDS011;25973;52.368;4.940;2023-02-12T04:00:23;17.50;;;7.75;;
40254;SDS011;25973;52.368;4.940;2023-02-12T04:02:49;20.52;;;7.45;;
40254;SDS011;25973;52.368;4.940;2023-02-12T04:05:19;16.55;;;7.80;;
40254;SDS011;25973;52.368;4.940;2023-02-12T04:07:47;16.90;;;7.35;;
40254;SDS011;25973;52.368;4.940;2023-02-12T04:10:14;15.93;;;7.22;;
40254;SDS011;25973;52.368;4.940;2023-02-12T04:12:45;15.88;;;7.07;;
40254;SDS011;25973;52.368;4.940;2023-02-12T04:18:42;19.75;;;8.48;;
40254;SDS011;25973;52.368;4.940;2023-02-12T04:26:34;16.73;;;7.88;;
40254;SDS011;25973;52.368;4.940;2023-02-12T04:37:05;24.50;;;8.43;;
40254;SDS011;25973;52.368;4.940;2023-02-12T04:39:36;18.45;;;7.97;;
40254;SDS011;25973;52.368;4.940;2023-02-12T04:42:05;22.10;;;8.27;;
40254;SDS011;25973;52.368;4.940;2023-02-12T04:44:32;17.45;;;7.97;;
40254;SDS011;25973;52.368;4.940;2023-02-12T04:46:59;19.88;;;8.38;;
40254;SDS011;25973;52.368;4.940;2023-02-12T04:49:25;21.05;;;7.20;;
40254;SDS011;25973;52.368;4.940;2023-02-12T04:51:51;19.38;;;7.68;;
40254;SDS011;25973;52.368;4.940;2023-02-12T04:54:17;20.30;;;9.48;;
40254;SDS011;25973;52.368;4.940;2023-02-12T04:56:44;21.77;;;8.27;;
40254;SDS011;25973;52.368;4.940;2023-02-12T04:59:10;20.00;;;8.27;;
40254;SDS011;25973;52.368;4.940;2023-02-12T05:01:36;14.93;;;6.82;;
40254;SDS011;25973;52.368;4.940;2023-02-12T05:04:04;24.80;;;8.77;;
40254;SDS011;25973;52.368;4.940;2023-02-12T05:06:30;19.35;;;8.30;;
40254;SDS011;25973;52.368;4.940;2023-02-12T05:08:59;23.20;;;7.13;;
40254;SDS011;25973;52.368;4.940;2023-02-12T05:11:25;17.85;;;6.65;;
40254;SDS011;25973;52.368;4.940;2023-02-12T05:13:51;16.80;;;7.22;;
40254;SDS011;25973;52.368;4.940;2023-02-12T05:16:18;16.02;;;7.13;;
40254;SDS011;25973;52.368;4.940;2023-02-12T05:18:45;19.65;;;6.90;;
40254;SDS011;25973;52.368;4.940;2023-02-12T05:21:10;18.67;;;7.13;;
40254;SDS011;25973;52.368;4.940;2023-02-12T05:23:37;14.00;;;5.45;;
40254;SDS011;25973;52.368;4.940;2023-02-12T05:26:06;14.27;;;5.18;;
40254;SDS011;25973;52.368;4.940;2023-02-12T05:28:34;8.75;;;4.38;;
40254;SDS011;25973;52.368;4.940;2023-02-12T05:31:00;20.90;;;5.55;;
40254;SDS011;25973;52.368;4.940;2023-02-12T05:33:28;11.95;;;5.43;;
40254;SDS011;25973;52.368;4.940;2023-02-12T05:35:54;10.57;;;4.88;;
40254;SDS011;25973;52.368;4.940;2023-02-12T05:38:20;11.93;;;5.18;;
40254;SDS011;25973;52.368;4.940;2023-02-12T05:40:46;10.68;;;5.53;;
40254;SDS011;25973;52.368;4.940;2023-02-12T05:43:12;11.25;;;4.38;;
40254;SDS011;25973;52.368;4.940;2023-02-12T05:45:38;12.95;;;5.50;;
40254;SDS011;25973;52.368;4.940;2023-02-12T05:48:05;12.00;;;4.80;;
40254;SDS011;25973;52.368;4.940;2023-02-12T05:50:31;10.38;;;4.75;;
40254;SDS011;25973;52.368;4.940;2023-02-12T05:52:58;10.25;;;5.47;;
40254;SDS011;25973;52.368;4.940;2023-02-12T05:55:25;10.70;;;4.38;;
40254;SDS011;25973;52.368;4.940;2023-02-12T05:57:50;10.55;;;4.18;;
40254;SDS011;25973;52.368;4.940;2023-02-12T06:00:16;10.30;;;5.10;;
40254;SDS011;25973;52.368;4.940;2023-02-12T06:02:41;8.98;;;4.80;;
40254;SDS011;25973;52.368;4.940;2023-02-12T06:05:07;9.70;;;4.97;;
40254;SDS011;25973;52.368;4.940;2023-02-12T06:07:32;13.25;;;4.95;;
40254;SDS011;25973;52.368;4.940;2023-02-12T06:09:58;13.05;;;4.50;;
40254;SDS011;25973;52.368;4.940;2023-02-12T06:12:24;8.85;;;3.67;;
40254;SDS011;25973;52.368;4.940;2023-02-12T06:14:49;11.68;;;5.05;;
40254;SDS011;25973;52.368;4.940;2023-02-12T06:17:15;8.77;;;4.40;;
40254;SDS011;25973;52.368;4.940;2023-02-12T06:19:40;11.57;;;5.07;;
40254;SDS011;25973;52.368;4.940;2023-02-12T06:22:06;8.27;;;3.58;;
40254;SDS011;25973;52.368;4.940;2023-02-12T06:24:32;12.52;;;4.40;;
40254;SDS011;25973;52.368;4.940;2023-02-12T06:26:57;10.45;;;3.70;;
40254;SDS011;25973;52.368;4.940;2023-02-12T06:29:23;9.55;;;4.15;;
40254;SDS011;25973;52.368;4.940;2023-02-12T06:31:48;9.25;;;4.22;;
40254;SDS011;25973;52.368;4.940;2023-02-12T06:34:14;7.57;;;3.80;;
40254;SDS011;25973;52.368;4.940;2023-02-12T06:36:42;7.13;;;3.78;;
40254;SDS011;25973;52.368;4.940;2023-02-12T06:39:09;8.48;;;3.78;;
40254;SDS011;25973;52.368;4.940;2023-02-12T06:41:35;6.45;;;3.95;;
40254;SDS011;25973;52.368;4.940;2023-02-12T06:44:01;7.18;;;3.92;;
40254;SDS011;25973;52.368;4.940;2023-02-12T06:46:27;11.02;;;4.20;;
40254;SDS011;25973;52.368;4.940;2023-02-12T06:48:54;8.82;;;3.72;;
40254;SDS011;25973;52.368;4.940;2023-02-12T06:51:20;7.93;;;3.70;;
40254;SDS011;25973;52.368;4.940;2023-02-12T06:53:47;8.02;;;3.70;;
40254;SDS011;25973;52.368;4.940;2023-02-12T06:56:14;8.40;;;3.95;;
40254;SDS011;25973;52.368;4.940;2023-02-12T06:58:41;7.57;;;4.03;;
40254;SDS011;25973;52.368;4.940;2023-02-12T07:03:37;7.80;;;3.85;;
40254;SDS011;25973;52.368;4.940;2023-02-12T07:06:06;7.55;;;3.35;;
40254;SDS011;25973;52.368;4.940;2023-02-12T07:08:33;11.18;;;3.15;;
40254;SDS011;25973;52.368;4.940;2023-02-12T07:10:58;12.75;;;3.55;;
40254;SDS011;25973;52.368;4.940;2023-02-12T07:13:24;6.88;;;3.30;;
40254;SDS011;25973;52.368;4.940;2023-02-12T07:15:49;9.40;;;3.20;;
40254;SDS011;25973;52.368;4.940;2023-02-12T07:18:15;8.13;;;3.03;;
40254;SDS011;25973;52.368;4.940;2023-02-12T07:20:40;8.52;;;3.13;;
40254;SDS011;25973;52.368;4.940;2023-02-12T07:23:06;4.68;;;2.58;;
40254;SDS011;25973;52.368;4.940;2023-02-12T07:25:35;8.30;;;3.85;;
40254;SDS011;25973;52.368;4.940;2023-02-12T07:28:01;7.03;;;3.13;;
40254;SDS011;25973;52.368;4.940;2023-02-12T07:30:26;7.72;;;3.90;;
40254;SDS011;25973;52.368;4.940;2023-02-12T07:32:52;6.78;;;3.00;;
40254;SDS011;25973;52.368;4.940;2023-02-12T07:35:17;8.80;;;3.38;;
40254;SDS011;25973;52.368;4.940;2023-02-12T07:37:43;6.00;;;2.90;;
40254;SDS011;25973;52.368;4.940;2023-02-12T07:40:09;6.90;;;2.88;;
40254;SDS011;25973;52.368;4.940;2023-02-12T07:42:34;6.55;;;3.33;;
40254;SDS011;25973;52.368;4.940;2023-02-12T07:45:00;8.40;;;3.67;;
40254;SDS011;25973;52.368;4.940;2023-02-12T07:47:25;7.40;;;3.30;;
40254;SDS011;25973;52.368;4.940;2023-02-12T07:49:51;5.75;;;2.83;;
40254;SDS011;25973;52.368;4.940;2023-02-12T07:52:17;7.47;;;3.33;;
40254;SDS011;25973;52.368;4.940;2023-02-12T07:54:42;5.90;;;3.00;;
40254;SDS011;25973;52.368;4.940;2023-02-12T07:57:08;6.88;;;3.35;;
40254;SDS011;25973;52.368;4.940;2023-02-12T07:59:33;6.13;;;3.17;;
40254;SDS011;25973;52.368;4.940;2023-02-12T08:01:59;7.75;;;3.45;;
40254;SDS011;25973;52.368;4.940;2023-02-12T08:04:25;8.07;;;3.65;;
40254;SDS011;25973;52.368;4.940;2023-02-12T08:06:52;8.15;;;3.30;;
40254;SDS011;25973;52.368;4.940;2023-02-12T08:09:23;6.13;;;2.70;;
40254;SDS011;25973;52.368;4.940;2023-02-12T08:11:51;8.82;;;3.08;;
40254;SDS011;25973;52.368;4.940;2023-02-12T08:14:18;10.93;;;2.83;;
40254;SDS011;25973;52.368;4.940;2023-02-12T08:16:45;5.82;;;3.05;;
40254;SDS011;25973;52.368;4.940;2023-02-12T08:19:12;8.98;;;3.42;;
40254;SDS011;25973;52.368;4.940;2023-02-12T08:21:38;16.10;;;3.90;;
40254;SDS011;25973;52.368;4.940;2023-02-12T08:24:04;7.25;;;3.33;;
40254;SDS011;25973;52.368;4.940;2023-02-12T08:26:31;11.65;;;3.75;;
40254;SDS011;25973;52.368;4.940;2023-02-12T08:28:59;8.95;;;3.65;;
40254;SDS011;25973;52.368;4.940;2023-02-12T08:31:36;6.65;;;3.30;;
40254;SDS011;25973;52.368;4.940;2023-02-12T08:34:04;8.68;;;3.75;;
40254;SDS011;25973;52.368;4.940;2023-02-12T08:36:34;9.45;;;3.33;;
40254;SDS011;25973;52.368;4.940;2023-02-12T08:39:02;10.57;;;3.55;;
40254;SDS011;25973;52.368;4.940;2023-02-12T08:41:28;6.70;;;3.65;;
40254;SDS011;25973;52.368;4.940;2023-02-12T08:43:58;6.10;;;3.22;;
40254;SDS011;25973;52.368;4.940;2023-02-12T08:46:27;6.72;;;2.95;;
40254;SDS011;25973;52.368;4.940;2023-02-12T08:48:55;5.57;;;2.78;;
40254;SDS011;25973;52.368;4.940;2023-02-12T08:51:23;7.55;;;2.65;;
40254;SDS011;25973;52.368;4.940;2023-02-12T08:53:51;5.43;;;2.85;;
40254;SDS011;25973;52.368;4.940;2023-02-12T08:56:19;5.93;;;3.15;;
40254;SDS011;25973;52.368;4.940;2023-02-12T08:58:46;5.25;;;2.67;;
40254;SDS011;25973;52.368;4.940;2023-02-12T09:01:13;7.68;;;3.10;;
40254;SDS011;25973;52.368;4.940;2023-02-12T09:03:46;7.68;;;3.17;;
40254;SDS011;25973;52.368;4.940;2023-02-12T09:06:17;9.25;;;3.05;;
40254;SDS011;25973;52.368;4.940;2023-02-12T09:11:21;6.65;;;3.45;;
40254;SDS011;25973;52.368;4.940;2023-02-12T09:13:54;8.30;;;3.67;;
40254;SDS011;25973;52.368;4.940;2023-02-12T09:16:21;5.63;;;3.03;;
40254;SDS011;25973;52.368;4.940;2023-02-12T09:18:46;7.93;;;3.20;;
40254;SDS011;25973;52.368;4.940;2023-02-12T09:21:13;6.32;;;3.00;;
40254;SDS011;25973;52.368;4.940;2023-02-12T09:23:40;8.35;;;2.88;;
40254;SDS011;25973;52.368;4.940;2023-02-12T09:26:07;4.47;;;2.40;;
40254;SDS011;25973;52.368;4.940;2023-02-12T09:28:35;3.17;;;2.33;;
40254;SDS011;25973;52.368;4.940;2023-02-12T09:31:07;4.18;;;2.28;;
40254;SDS011;25973;52.368;4.940;2023-02-12T09:33:36;9.30;;;2.72;;
40254;SDS011;25973;52.368;4.940;2023-02-12T09:36:02;5.03;;;2.50;;
40254;SDS011;25973;52.368;4.940;2023-02-12T09:38:29;6.85;;;2.75;;
40254;SDS011;25973;52.368;4.940;2023-02-12T09:46:13;3.58;;;2.20;;
40254;SDS011;25973;52.368;4.940;2023-02-12T09:51:24;7.75;;;2.28;;
40254;SDS011;25973;52.368;4.940;2023-02-12T09:53:56;6.43;;;2.38;;
40254;SDS011;25973;52.368;4.940;2023-02-12T09:56:30;4.88;;;2.00;;
40254;SDS011;25973;52.368;4.940;2023-02-12T09:58:58;5.13;;;2.00;;
40254;SDS011;25973;52.368;4.940;2023-02-12T10:01:27;3.72;;;2.40;;
40254;SDS011;25973;52.368;4.940;2023-02-12T10:03:53;6.63;;;2.15;;
40254;SDS011;25973;52.368;4.940;2023-02-12T10:06:26;4.70;;;2.72;;
40254;SDS011;25973;52.368;4.940;2023-02-12T10:11:55;4.18;;;3.03;;
40254;SDS011;25973;52.368;4.940;2023-02-12T10:25:47;4.03;;;1.83;;
40254;SDS011;25973;52.368;4.940;2023-02-12T10:28:33;5.50;;;1.88;;
40254;SDS011;25973;52.368;4.940;2023-02-12T10:31:07;6.90;;;2.20;;
40254;SDS011;25973;52.368;4.940;2023-02-12T10:33:44;5.72;;;1.63;;
40254;SDS011;25973;52.368;4.940;2023-02-12T10:38:51;7.30;;;1.60;;
40254;SDS011;25973;52.368;4.940;2023-02-12T10:41:24;2.95;;;1.65;;
40254;SDS011;25973;52.368;4.940;2023-02-12T10:43:52;2.47;;;1.45;;
40254;SDS011;25973;52.368;4.940;2023-02-12T10:46:18;4.82;;;1.75;;
40254;SDS011;25973;52.368;4.940;2023-02-12T10:48:44;2.17;;;1.50;;
40254;SDS011;25973;52.368;4.940;2023-02-12T10:53:58;6.05;;;1.85;;
40254;SDS011;25973;52.368;4.940;2023-02-12T10:56:55;9.35;;;4.63;;
40254;SDS011;25973;52.368;4.940;2023-02-12T10:59:22;4.32;;;2.13;;
40254;SDS011;25973;52.368;4.940;2023-02-12T11:01:48;3.05;;;1.67;;
40254;SDS011;25973;52.368;4.940;2023-02-12T11:09:33;3.80;;;1.90;;
40254;SDS011;25973;52.368;4.940;2023-02-12T11:12:04;4.88;;;1.38;;
40254;SDS011;25973;52.368;4.940;2023-02-12T11:15:00;7.38;;;2.08;;
40254;SDS011;25973;52.368;4.940;2023-02-12T11:17:37;3.33;;;1.70;;
40254;SDS011;25973;52.368;4.940;2023-02-12T11:22:29;4.32;;;1.77;;
40254;SDS011;25973;52.368;4.940;2023-02-12T11:24:59;3.10;;;1.48;;
40254;SDS011;25973;52.368;4.940;2023-02-12T11:27:27;3.85;;;1.70;;
40254;SDS011;25973;52.368;4.940;2023-02-12T11:32:53;6.53;;;2.10;;
40254;SDS011;25973;52.368;4.940;2023-02-12T11:35:20;11.93;;;5.70;;
40254;SDS011;25973;52.368;4.940;2023-02-12T11:37:50;5.57;;;3.17;;
40254;SDS011;25973;52.368;4.940;2023-02-12T11:40:20;4.43;;;2.45;;
40254;SDS011;25973;52.368;4.940;2023-02-12T11:42:49;6.28;;;2.15;;
40254;SDS011;25973;52.368;4.940;2023-02-12T11:45:18;2.75;;;1.55;;
40254;SDS011;25973;52.368;4.940;2023-02-12T11:47:46;3.63;;;1.65;;
40254;SDS011;25973;52.368;4.940;2023-02-12T11:50:28;5.53;;;1.58;;
40254;SDS011;25973;52.368;4.940;2023-02-12T11:53:03;3.08;;;1.65;;
40254;SDS011;25973;52.368;4.940;2023-02-12T11:55:34;8.45;;;2.45;;
40254;SDS011;25973;52.368;4.940;2023-02-12T11:58:08;6.78;;;2.85;;
40254;SDS011;25973;52.368;4.940;2023-02-12T12:00:37;8.98;;;2.97;;
40254;SDS011;25973;52.368;4.940;2023-02-12T12:03:20;11.90;;;2.63;;
40254;SDS011;25973;52.368;4.940;2023-02-12T12:14:31;4.72;;;2.63;;
40254;SDS011;25973;52.368;4.940;2023-02-12T12:20:42;6.32;;;3.20;;
40254;SDS011;25973;52.368;4.940;2023-02-12T12:23:23;4.93;;;2.67;;
40254;SDS011;25973;52.368;4.940;2023-02-12T12:26:03;5.47;;;3.30;;
40254;SDS011;25973;52.368;4.940;2023-02-12T12:32:06;10.35;;;4.93;;
40254;SDS011;25973;52.368;4.940;2023-02-12T12:34:35;11.80;;;5.18;;
40254;SDS011;25973;52.368;4.940;2023-02-12T12:40:25;7.93;;;4.07;;
40254;SDS011;25973;52.368;4.940;2023-02-12T12:56:54;4.90;;;2.97;;
40254;SDS011;25973;52.368;4.940;2023-02-12T13:13:52;5.95;;;3.08;;
40254;SDS011;25973;52.368;4.940;2023-02-12T13:16:29;6.22;;;3.50;;
40254;SDS011;25973;52.368;4.940;2023-02-12T13:21:59;9.38;;;3.47;;
40254;SDS011;25973;52.368;4.940;2023-02-12T13:27:09;8.45;;;3.70;;
40254;SDS011;25973;52.368;4.940;2023-02-12T13:29:47;6.47;;;3.55;;
40254;SDS011;25973;52.368;4.940;2023-02-12T13:32:23;6.68;;;3.17;;
40254;SDS011;25973;52.368;4.940;2023-02-12T13:37:35;14.18;;;5.30;;
40254;SDS011;25973;52.368;4.940;2023-02-12T13:40:05;6.40;;;3.67;;
40254;SDS011;25973;52.368;4.940;2023-02-12T13:42:47;18.60;;;5.65;;
40254;SDS011;25973;52.368;4.940;2023-02-12T13:51:10;6.47;;;3.88;;
40254;SDS011;25973;52.368;4.940;2023-02-12T13:58:55;8.25;;;4.07;;
40254;SDS011;25973;52.368;4.940;2023-02-12T14:01:34;9.38;;;3.40;;
40254;SDS011;25973;52.368;4.940;2023-02-12T14:14:50;8.32;;;3.72;;
40254;SDS011;25973;52.368;4.940;2023-02-12T14:27:47;9.38;;;4.70;;
40254;SDS011;25973;52.368;4.940;2023-02-12T14:40:42;9.80;;;4.97;;
40254;SDS011;25973;52.368;4.940;2023-02-12T14:51:20;11.45;;;4.82;;
40254;SDS011;25973;52.368;4.940;2023-02-12T14:53:50;12.68;;;5.30;;
40254;SDS011;25973;52.368;4.940;2023-02-12T14:56:19;10.10;;;4.72;;
40254;SDS011;25973;52.368;4.940;2023-02-12T14:58:46;11.93;;;4.82;;
40254;SDS011;25973;52.368;4.940;2023-02-12T15:01:13;27.55;;;11.80;;
40254;SDS011;25973;52.368;4.940;2023-02-12T15:03:40;13.77;;;6.50;;
40254;SDS011;25973;52.368;4.940;2023-02-12T15:06:13;10.93;;;5.65;;
40254;SDS011;25973;52.368;4.940;2023-02-12T15:11:19;6.97;;;4.07;;
40254;SDS011;25973;52.368;4.940;2023-02-12T15:16:31;9.02;;;4.53;;
40254;SDS011;25973;52.368;4.940;2023-02-12T15:22:01;13.85;;;5.65;;
40254;SDS011;25973;52.368;4.940;2023-02-12T15:24:27;10.40;;;5.22;;
40254;SDS011;25973;52.368;4.940;2023-02-12T15:26:56;13.68;;;5.85;;
40254;SDS011;25973;52.368;4.940;2023-02-12T15:29:28;10.50;;;5.22;;
40254;SDS011;25973;52.368;4.940;2023-02-12T15:31:59;8.73;;;4.60;;
40254;SDS011;25973;52.368;4.940;2023-02-12T15:34:29;11.13;;;5.78;;
40254;SDS011;25973;52.368;4.940;2023-02-12T15:36:58;11.07;;;5.88;;
40254;SDS011;25973;52.368;4.940;2023-02-12T15:39:25;12.52;;;6.50;;
40254;SDS011;25973;52.368;4.940;2023-02-12T15:41:52;13.60;;;5.80;;
40254;SDS011;25973;52.368;4.940;2023-02-12T15:47:10;10.88;;;5.53;;
40254;SDS011;25973;52.368;4.940;2023-02-12T15:49:39;14.48;;;5.32;;
40254;SDS011;25973;52.368;4.940;2023-02-12T15:52:29;8.40;;;4.93;;
40254;SDS011;25973;52.368;4.940;2023-02-12T15:54:58;9.85;;;5.45;;
40254;SDS011;25973;52.368;4.940;2023-02-12T15:57:25;15.93;;;5.85;;
40254;SDS011;25973;52.368;4.940;2023-02-12T15:59:51;12.13;;;5.60;;
40254;SDS011;25973;52.368;4.940;2023-02-12T16:02:33;15.40;;;6.40;;
40254;SDS011;25973;52.368;4.940;2023-02-12T16:04:59;18.60;;;6.82;;
40254;SDS011;25973;52.368;4.940;2023-02-12T16:07:28;17.17;;;6.90;;
40254;SDS011;25973;52.368;4.940;2023-02-12T16:09:58;11.73;;;6.03;;
40254;SDS011;25973;52.368;4.940;2023-02-12T16:12:27;12.93;;;6.40;;
40254;SDS011;25973;52.368;4.940;2023-02-12T16:14:56;12.43;;;6.55;;
40254;SDS011;25973;52.368;4.940;2023-02-12T16:22:42;13.27;;;6.28;;
40254;SDS011;25973;52.368;4.940;2023-02-12T16:25:14;10.52;;;6.13;;
40254;SDS011;25973;52.368;4.940;2023-02-12T16:27:40;15.10;;;6.70;;
40254;SDS011;25973;52.368;4.940;2023-02-12T16:30:26;17.42;;;7.75;;
40254;SDS011;25973;52.368;4.940;2023-02-12T16:32:55;14.25;;;7.20;;
40254;SDS011;25973;52.368;4.940;2023-02-12T16:35:25;15.13;;;6.90;;
40254;SDS011;25973;52.368;4.940;2023-02-12T16:37:57;13.90;;;6.88;;
40254;SDS011;25973;52.368;4.940;2023-02-12T16:40:32;16.30;;;6.43;;
40254;SDS011;25973;52.368;4.940;2023-02-12T16:43:00;16.10;;;7.38;;
40254;SDS011;25973;52.368;4.940;2023-02-12T16:50:30;12.88;;;7.10;;
40254;SDS011;25973;52.368;4.940;2023-02-12T16:53:21;12.45;;;7.28;;
40254;SDS011;25973;52.368;4.940;2023-02-12T16:55:49;17.50;;;7.47;;
40254;SDS011;25973;52.368;4.940;2023-02-12T16:58:15;14.82;;;7.65;;
40254;SDS011;25973;52.368;4.940;2023-02-12T17:00:40;20.58;;;7.93;;
40254;SDS011;25973;52.368;4.940;2023-02-12T17:03:08;19.88;;;8.02;;
40254;SDS011;25973;52.368;4.940;2023-02-12T17:05:38;17.52;;;8.88;;
40254;SDS011;25973;52.368;4.940;2023-02-12T17:08:09;15.32;;;7.50;;
40254;SDS011;25973;52.368;4.940;2023-02-12T17:10:37;16.40;;;8.30;;
40254;SDS011;25973;52.368;4.940;2023-02-12T17:13:03;17.30;;;8.82;;
40254;SDS011;25973;52.368;4.940;2023-02-12T17:15:29;14.82;;;8.25;;
40254;SDS011;25973;52.368;4.940;2023-02-12T17:17:59;21.70;;;9.23;;
40254;SDS011;25973;52.368;4.940;2023-02-12T17:20:25;14.65;;;7.97;;
40254;SDS011;25973;52.368;4.940;2023-02-12T17:22:51;17.98;;;8.95;;
40254;SDS011;25973;52.368;4.940;2023-02-12T17:25:20;16.02;;;8.23;;
40254;SDS011;25973;52.368;4.940;2023-02-12T17:27:46;24.33;;;8.65;;
40254;SDS011;25973;52.368;4.940;2023-02-12T17:30:15;16.15;;;9.38;;
40254;SDS011;25973;52.368;4.940;2023-02-12T17:32:42;14.95;;;8.35;;
40254;SDS011;25973;52.368;4.940;2023-02-12T17:35:08;16.45;;;9.10;;
40254;SDS011;25973;52.368;4.940;2023-02-12T17:37:34;16.15;;;8.75;;
40254;SDS011;25973;52.368;4.940;2023-02-12T17:39:59;19.70;;;9.00;;
40254;SDS011;25973;52.368;4.940;2023-02-12T17:42:25;15.10;;;7.68;;
40254;SDS011;25973;52.368;4.940;2023-02-12T17:44:51;19.60;;;9.48;;
40254;SDS011;25973;52.368;4.940;2023-02-12T17:47:17;18.75;;;8.98;;
40254;SDS011;25973;52.368;4.940;2023-02-12T17:49:43;15.90;;;7.63;;
40254;SDS011;25973;52.368;4.940;2023-02-12T17:52:08;15.35;;;8.15;;
40254;SDS011;25973;52.368;4.940;2023-02-12T17:54:34;17.38;;;8.93;;
40254;SDS011;25973;52.368;4.940;2023-02-12T17:57:00;21.23;;;9.82;;
40254;SDS011;25973;52.368;4.940;2023-02-12T17:59:25;20.13;;;9.07;;
40254;SDS011;25973;52.368;4.940;2023-02-12T18:01:51;16.75;;;9.38;;
40254;SDS011;25973;52.368;4.940;2023-02-12T18:04:16;23.17;;;11.45;;
40254;SDS011;25973;52.368;4.940;2023-02-12T18:06:42;22.45;;;9.15;;
40254;SDS011;25973;52.368;4.940;2023-02-12T18:09:08;18.33;;;9.60;;
40254;SDS011;25973;52.368;4.940;2023-02-12T18:11:33;18.30;;;8.50;;
40254;SDS011;25973;52.368;4.940;2023-02-12T18:13:59;18.13;;;9.45;;
40254;SDS011;25973;52.368;4.940;2023-02-12T18:16:26;19.20;;;9.75;;
40254;SDS011;25973;52.368;4.940;2023-02-12T18:18:53;26.00;;;9.90;;